createdAt,value
2019-02-09T00:01:57.688Z,99825.76
2019-02-09T00:04:25.887Z,99829.09
2019-02-09T00:06:54.086Z,99844.06
2019-02-09T00:09:22.290Z,99833.02
2019-02-09T00:11:50.467Z,99822.55
2019-02-09T00:14:18.681Z,99830.26
2019-02-09T00:16:46.866Z,99827.83
2019-02-09T00:19:15.062Z,99827.05
2019-02-09T00:21:43.314Z,99807.28
2019-02-09T00:24:11.531Z,99812.56
2019-02-09T00:26:39.783Z,99802.09
2019-02-09T00:29:07.984Z,99800.75
2019-02-09T00:31:36.202Z,99805.61
2019-02-09T00:34:04.395Z,99789.30
2019-02-09T00:36:32.571Z,99785.20
2019-02-09T00:39:00.769Z,99777.40
2019-02-09T00:41:28.968Z,99772.36
2019-02-09T00:43:57.176Z,99774.31
2019-02-09T00:46:25.370Z,99769.06
2019-02-09T00:48:53.583Z,99766.78
2019-02-09T00:51:21.768Z,99776.11
2019-02-09T00:53:49.980Z,99765.91
2019-02-09T00:56:18.154Z,99750.78
2019-02-09T00:58:46.347Z,99753.08
2019-02-09T01:01:14.520Z,99755.74
2019-02-09T01:03:42.714Z,99743.01
2019-02-09T01:06:10.888Z,99752.56
2019-02-09T01:08:39.080Z,99741.20
2019-02-09T01:11:07.253Z,99753.27
2019-02-09T01:13:35.430Z,99752.00
2019-02-09T01:16:03.622Z,99738.38
2019-02-09T01:18:31.797Z,99739.63
2019-02-09T01:20:59.989Z,99740.55
2019-02-09T01:23:28.163Z,99736.89
2019-02-09T01:25:56.380Z,99740.81
2019-02-09T01:28:24.565Z,99739.78
2019-02-09T01:30:52.755Z,99741.49
2019-02-09T01:33:20.954Z,99730.83
2019-02-09T01:35:49.139Z,99733.70
2019-02-09T01:38:17.322Z,99719.71
2019-02-09T01:40:45.554Z,99719.47
2019-02-09T01:43:13.729Z,99725.69
2019-02-09T01:45:41.981Z,99712.03
2019-02-09T01:48:10.090Z,99711.13
2019-02-09T01:50:38.282Z,99693.34
2019-02-09T01:53:06.461Z,99691.50
2019-02-09T01:55:34.659Z,99709.20
2019-02-09T01:58:02.860Z,99681.41
2019-02-09T02:01:11.174Z,99690.27
2019-02-09T02:03:39.387Z,99691.52
2019-02-09T02:06:07.573Z,99689.94
2019-02-09T02:08:35.745Z,99676.06
2019-02-09T02:11:03.938Z,99680.20
2019-02-09T02:13:32.128Z,99671.94
2019-02-09T02:16:00.328Z,99675.47
2019-02-09T02:18:28.504Z,99675.26
2019-02-09T02:20:56.702Z,99656.44
2019-02-09T02:23:24.877Z,99661.95
2019-02-09T02:25:53.089Z,99658.02
2019-02-09T02:28:21.272Z,99660.00
2019-02-09T02:30:49.460Z,99652.52
2019-02-09T02:33:17.640Z,99652.76
2019-02-09T02:35:45.829Z,99640.37
2019-02-09T02:38:14.008Z,99624.05
2019-02-09T02:40:42.199Z,99621.30
2019-02-09T02:43:10.373Z,99608.45
2019-02-09T02:45:38.590Z,99625.91
2019-02-09T02:48:06.769Z,99620.08
2019-02-09T02:50:34.951Z,99606.88
2019-02-09T02:53:03.130Z,99602.38
2019-02-09T02:56:11.454Z,99597.45
2019-02-09T02:58:39.633Z,99592.53
2019-02-09T03:01:07.829Z,99580.92
2019-02-09T03:03:36.040Z,99582.30
2019-02-09T03:06:04.254Z,99589.19
2019-02-09T03:08:32.427Z,99579.78
2019-02-09T03:11:00.650Z,99583.34
2019-02-09T03:13:28.821Z,99582.99
2019-02-09T03:15:57.032Z,99580.12
2019-02-09T03:18:25.212Z,99581.25
2019-02-09T03:20:53.425Z,99579.31
2019-02-09T03:23:21.646Z,99583.08
2019-02-09T03:25:49.833Z,99573.44
2019-02-09T03:28:18.014Z,99574.25
2019-02-09T03:30:48.642Z,99566.80
2019-02-09T03:33:16.126Z,99573.08
2019-02-09T03:35:44.306Z,99578.59
2019-02-09T03:38:12.525Z,99563.80
2019-02-09T03:40:40.701Z,99562.42
2019-02-09T03:43:08.895Z,99563.45
2019-02-09T03:45:37.155Z,99557.73
2019-02-09T03:48:05.354Z,99573.08
2019-02-09T03:51:13.657Z,99556.56
2019-02-09T03:53:41.839Z,99552.67
2019-02-09T03:56:10.035Z,99550.60
2019-02-09T03:58:38.250Z,99539.59
2019-02-09T04:01:06.451Z,99552.58
2019-02-09T04:03:34.642Z,99551.41
2019-02-09T04:06:02.822Z,99537.07
2019-02-09T04:08:30.999Z,99543.15
2019-02-09T04:10:59.222Z,99544.31
2019-02-09T04:13:27.418Z,99547.64
2019-02-09T04:15:55.590Z,99549.23
2019-02-09T04:18:23.780Z,99551.86
2019-02-09T04:20:51.955Z,99540.72
2019-02-09T04:23:20.146Z,99552.19
2019-02-09T04:25:48.351Z,99534.86
2019-02-09T04:28:16.534Z,99538.42
2019-02-09T04:30:44.715Z,99526.23
2019-02-09T04:33:12.905Z,99507.76
2019-02-09T04:35:41.085Z,99523.72
2019-02-09T04:38:09.307Z,99518.90
2019-02-09T04:40:37.506Z,99513.18
2019-02-09T04:43:05.716Z,99517.97
2019-02-09T04:45:33.920Z,99522.09
2019-02-09T04:48:02.117Z,99514.08
2019-02-09T04:50:30.285Z,99516.47
2019-02-09T04:52:58.481Z,99521.41
2019-02-09T04:58:40.937Z,99524.16
2019-02-09T05:01:14.145Z,99522.79
2019-02-09T05:03:39.062Z,99527.94
2019-02-09T05:06:07.246Z,99524.25
2019-02-09T05:08:35.432Z,99519.67
2019-02-09T05:11:03.605Z,99526.47
2019-02-09T05:13:31.812Z,99523.63
2019-02-09T05:16:00.091Z,99514.56
2019-02-09T05:18:28.293Z,99528.00
2019-02-09T05:20:56.455Z,99516.42
2019-02-09T05:24:04.770Z,99540.03
2019-02-09T05:26:32.961Z,99502.28
2019-02-09T05:29:01.179Z,99506.33
2019-02-09T05:31:29.357Z,99501.03
2019-02-09T05:33:57.537Z,99500.02
2019-02-09T05:36:25.741Z,99500.83
2019-02-09T05:38:53.963Z,99498.87
2019-02-09T05:41:22.130Z,99501.39
2019-02-09T05:43:50.323Z,99519.17
2019-02-09T05:46:18.504Z,99494.52
2019-02-09T05:48:46.737Z,99495.68
2019-02-09T05:51:14.888Z,99488.44
2019-02-09T05:53:43.082Z,99497.05
2019-02-09T05:56:11.264Z,99481.67
2019-02-09T05:58:39.483Z,99491.31
2019-02-09T06:01:07.682Z,99495.68
2019-02-09T06:03:35.874Z,99486.25
2019-02-09T06:06:04.052Z,99493.94
2019-02-09T06:08:32.277Z,99494.59
2019-02-09T06:11:00.454Z,99495.20
2019-02-09T06:13:28.666Z,99503.45
2019-02-09T06:15:56.843Z,99505.28
2019-02-09T06:18:25.037Z,99515.13
2019-02-09T06:20:53.217Z,99538.54
2019-02-09T06:23:21.429Z,99527.61
2019-02-09T06:25:49.634Z,99525.09
2019-02-09T06:28:17.841Z,99521.66
2019-02-09T06:30:46.015Z,99526.50
2019-02-09T06:33:54.327Z,99518.81
2019-02-09T06:36:22.499Z,99519.17
2019-02-09T06:38:50.712Z,99515.84
2019-02-09T06:41:18.896Z,99503.30
2019-02-09T06:43:47.094Z,99508.61
2019-02-09T06:46:15.277Z,99507.23
2019-02-09T06:48:43.494Z,99525.81
2019-02-09T06:51:11.673Z,99534.89
2019-02-09T06:53:39.889Z,99521.59
2019-02-09T06:56:08.083Z,99533.45
2019-02-09T06:58:36.308Z,99547.58
2019-02-09T07:01:48.715Z,99531.75
2019-02-09T07:04:26.943Z,99537.94
2019-02-09T07:06:55.117Z,99538.42
2019-02-09T07:09:23.305Z,99537.64
2019-02-09T07:11:51.481Z,99531.69
2019-02-09T07:14:19.692Z,99535.36
2019-02-09T07:16:47.867Z,99543.02
2019-02-09T07:19:16.085Z,99542.70
2019-02-09T07:21:44.259Z,99549.58
2019-02-09T07:24:12.472Z,99546.47
2019-02-09T07:26:40.654Z,99543.14
2019-02-09T07:29:08.865Z,99537.84
2019-02-09T07:31:37.051Z,99553.68
2019-02-09T07:34:05.276Z,99559.84
2019-02-09T07:36:33.442Z,99560.09
2019-02-09T07:39:01.632Z,99562.48
2019-02-09T07:41:29.821Z,99558.23
2019-02-09T07:46:58.633Z,99559.58
2019-02-09T07:49:26.823Z,99572.99
2019-02-09T07:51:55.005Z,99573.08
2019-02-09T07:54:23.182Z,99585.92
2019-02-09T07:56:51.372Z,99566.08
2019-02-09T07:59:19.552Z,99571.47
2019-02-09T08:01:47.766Z,99581.20
2019-02-09T08:04:15.939Z,99583.59
2019-02-09T08:06:44.138Z,99585.09
2019-02-09T08:09:12.315Z,99588.73
2019-02-09T08:11:40.522Z,99585.06
2019-02-09T08:16:55.940Z,99582.60
2019-02-09T08:22:11.382Z,99580.17
2019-02-09T08:24:39.565Z,99596.31
2019-02-09T08:27:07.755Z,99599.72
2019-02-09T08:29:35.928Z,99580.59
2019-02-09T08:32:04.210Z,99594.73
2019-02-09T08:34:32.393Z,99590.80
2019-02-09T08:37:19.738Z,99590.38
2019-02-09T08:39:47.921Z,99582.42
2019-02-09T08:42:16.141Z,99592.03
2019-02-09T08:44:44.347Z,99598.47
2019-02-09T08:47:12.563Z,99596.80
2019-02-09T08:49:40.769Z,99605.27
2019-02-09T08:52:28.103Z,99619.00
2019-02-09T08:54:56.311Z,99603.13
2019-02-09T08:57:43.877Z,99611.19
2019-02-09T09:03:13.502Z,99628.35
2019-02-09T09:05:41.805Z,99615.98
2019-02-09T09:08:09.990Z,99614.30
2019-02-09T09:10:38.169Z,99616.81
2019-02-09T09:13:06.394Z,99620.02
2019-02-09T09:16:14.799Z,99614.69
2019-02-09T09:18:42.970Z,99632.20
2019-02-09T09:21:11.234Z,99647.89
2019-02-09T09:23:39.429Z,99630.53
2019-02-09T09:26:07.710Z,99626.13
2019-02-09T09:28:35.900Z,99624.81
2019-02-09T09:31:04.094Z,99626.39
2019-02-09T09:33:32.278Z,99616.22
2019-02-09T09:36:00.599Z,99623.55
2019-02-09T09:38:28.804Z,99632.47
2019-02-09T09:40:57.055Z,99623.11
2019-02-09T09:43:25.249Z,99628.14
2019-02-09T09:45:53.424Z,99639.12
2019-02-09T09:49:01.736Z,99638.75
2019-02-09T09:51:29.967Z,99639.56
2019-02-09T09:53:58.143Z,99643.56
2019-02-09T09:56:26.573Z,99650.67
2019-02-09T09:59:13.868Z,99643.64
2019-02-09T10:01:42.081Z,99641.24
2019-02-09T10:04:10.291Z,99641.18
2019-02-09T10:06:38.513Z,99653.24
2019-02-09T10:12:20.405Z,99676.77
2019-02-09T10:15:07.949Z,99680.23
2019-02-09T10:17:36.147Z,99666.50
2019-02-09T10:23:17.914Z,99683.02
2019-02-09T10:25:46.150Z,99676.39
2019-02-09T10:28:14.339Z,99679.39
2019-02-09T10:33:29.847Z,99677.12
2019-02-09T10:35:58.027Z,99684.74
2019-02-09T10:38:26.225Z,99691.31
2019-02-09T10:44:08.612Z,99677.19
2019-02-09T10:46:36.792Z,99683.38
2019-02-09T10:49:05.009Z,99682.00
2019-02-09T10:51:33.194Z,99676.60
2019-02-09T10:54:01.391Z,99678.12
2019-02-09T10:56:29.596Z,99682.50
2019-02-09T10:58:57.812Z,99656.44
2019-02-09T11:01:25.989Z,99663.13
2019-02-09T11:03:54.206Z,99662.73
2019-02-09T11:06:22.414Z,99670.38
2019-02-09T11:08:50.618Z,99664.45
2019-02-09T11:11:37.919Z,99664.75
2019-02-09T11:14:06.114Z,99673.86
2019-02-09T11:16:34.320Z,99661.12
2019-02-09T11:19:02.513Z,99668.91
2019-02-09T11:21:42.825Z,99674.70
2019-02-09T11:27:05.861Z,99668.95
2019-02-09T11:29:53.736Z,99665.17
2019-02-09T11:32:22.157Z,99658.84
2019-02-09T11:35:13.143Z,99673.33
2019-02-09T11:37:41.826Z,99670.77
2019-02-09T11:40:50.942Z,99676.25
2019-02-09T11:45:54.763Z,99664.23
2019-02-09T11:48:23.486Z,99676.32
2019-02-09T11:51:11.007Z,99664.56
2019-02-09T11:53:39.556Z,99661.08
2019-02-09T11:56:08.352Z,99645.45
2019-02-09T12:01:10.920Z,99661.38
2019-02-09T12:03:46.846Z,99644.63
2019-02-09T12:06:15.193Z,99638.77
2019-02-09T12:08:43.379Z,99635.90
2019-02-09T12:11:11.593Z,99650.27
2019-02-09T12:16:14.220Z,99665.58
2019-02-09T12:18:42.496Z,99659.95
2019-02-09T12:21:10.798Z,99635.37
2019-02-09T12:23:39.032Z,99643.77
2019-02-09T12:26:26.815Z,99660.09
2019-02-09T12:28:55.127Z,99647.35
2019-02-09T12:31:23.507Z,99654.17
2019-02-09T12:33:51.919Z,99650.02
2019-02-09T12:36:20.285Z,99653.88
2019-02-09T12:38:48.634Z,99660.03
2019-02-09T12:41:16.994Z,99660.06
2019-02-09T12:46:34.197Z,99655.00
2019-02-09T12:49:02.566Z,99663.08
2019-02-09T12:51:31.223Z,99655.73
2019-02-09T12:53:59.776Z,99662.65
2019-02-09T12:56:28.122Z,99648.48
2019-02-09T12:58:56.772Z,99648.68
2019-02-09T13:01:25.142Z,99656.27
2019-02-09T13:03:53.405Z,99652.69
2019-02-09T13:08:56.915Z,99652.89
2019-02-09T13:11:25.262Z,99650.98
2019-02-09T13:13:53.566Z,99659.38
2019-02-09T13:16:21.830Z,99655.86
2019-02-09T13:19:09.335Z,99663.00
2019-02-09T13:21:37.596Z,99643.03
2019-02-09T13:26:53.045Z,99654.12
2019-02-09T13:29:21.257Z,99647.59
2019-02-09T13:32:08.563Z,99640.61
2019-02-09T13:34:36.782Z,99637.67
2019-02-09T13:37:04.972Z,99658.34
2019-02-09T13:39:33.194Z,99655.58
2019-02-09T13:42:01.379Z,99655.49
2019-02-09T13:44:48.689Z,99656.88
2019-02-09T13:47:16.865Z,99652.02
2019-02-09T13:49:45.063Z,99658.64
2019-02-09T13:52:13.252Z,99654.78
2019-02-09T13:54:41.447Z,99643.01
2019-02-09T13:57:09.624Z,99641.16
2019-02-09T13:59:37.805Z,99665.77
2019-02-09T14:02:06.029Z,99653.23
2019-02-09T14:04:53.655Z,99637.50
2019-02-09T14:07:21.845Z,99656.41
2019-02-09T14:10:09.401Z,99650.02
2019-02-09T14:12:37.611Z,99639.19
2019-02-09T14:15:45.916Z,99658.42
2019-02-09T14:18:14.118Z,99662.37
2019-02-09T14:20:42.323Z,99661.42
2019-02-09T14:23:10.517Z,99659.22
2019-02-09T14:25:38.707Z,99659.14
2019-02-09T14:31:20.977Z,99677.55
2019-02-09T14:33:54.874Z,99680.21
2019-02-09T14:36:19.072Z,99711.31
2019-02-09T14:38:47.278Z,99712.11
2019-02-09T14:41:15.473Z,99724.59
2019-02-09T14:43:43.678Z,99712.24
2019-02-09T14:46:11.868Z,99751.06
2019-02-09T14:48:40.054Z,99785.11
2019-02-09T14:51:08.245Z,99745.80
2019-02-09T14:53:36.440Z,99771.16
2019-02-09T14:56:04.639Z,99773.53
2019-02-09T14:58:32.815Z,99758.55
2019-02-09T15:01:01.008Z,99764.92
2019-02-09T15:03:30.752Z,99766.87
2019-02-09T15:05:59.099Z,99764.31
2019-02-09T15:08:27.280Z,99763.84
2019-02-09T15:10:55.497Z,99765.34
2019-02-09T15:13:43.058Z,99764.20
2019-02-09T15:16:51.362Z,99767.31
2019-02-09T15:19:19.562Z,99773.66
2019-02-09T15:21:47.751Z,99777.50
2019-02-09T15:24:15.954Z,99776.97
2019-02-09T15:26:44.148Z,99780.06
2019-02-09T15:29:12.336Z,99790.30
2019-02-09T15:31:40.534Z,99781.58
2019-02-09T15:34:10.323Z,99793.17
2019-02-09T15:36:38.645Z,99783.42
2019-02-09T15:39:46.958Z,99796.84
2019-02-09T15:42:16.135Z,99795.11
2019-02-09T15:44:45.089Z,99791.55
2019-02-09T15:47:13.279Z,99805.78
2019-02-09T15:49:41.478Z,99794.55
2019-02-09T15:52:49.782Z,99803.95
2019-02-09T15:55:37.421Z,99807.06
2019-02-09T15:58:05.634Z,99802.83
2019-02-09T16:03:47.534Z,99815.44
2019-02-09T16:06:15.737Z,99809.92
2019-02-09T16:08:43.933Z,99818.79
2019-02-09T16:11:12.112Z,99820.48
2019-02-09T16:13:45.579Z,99827.83
2019-02-09T16:16:10.225Z,99821.41
2019-02-09T16:18:38.440Z,99824.97
2019-02-09T16:21:06.618Z,99830.59
2019-02-09T16:23:34.809Z,99813.84
2019-02-09T16:26:03.010Z,99829.56
2019-02-09T16:28:31.208Z,99826.92
2019-02-09T16:30:59.404Z,99836.09
2019-02-09T16:33:27.595Z,99844.81
2019-02-09T16:35:55.771Z,99836.80
2019-02-09T16:38:23.965Z,99837.94
2019-02-09T16:40:52.209Z,99844.61
2019-02-09T16:43:20.362Z,99845.17
2019-02-09T16:45:48.556Z,99834.72
2019-02-09T16:48:16.767Z,99830.12
2019-02-09T16:50:44.950Z,99855.52
2019-02-09T16:53:13.137Z,99866.53
2019-02-09T16:55:41.341Z,99861.80
2019-02-09T16:58:09.541Z,99876.17
2019-02-09T17:03:51.964Z,99878.33
2019-02-09T17:06:20.139Z,99885.91
2019-02-09T17:08:48.350Z,99895.31
2019-02-09T17:11:16.541Z,99895.45
2019-02-09T17:13:44.742Z,99896.23
2019-02-09T17:16:12.922Z,99905.75
2019-02-09T17:18:41.114Z,99906.11
2019-02-09T17:23:56.531Z,99915.59
2019-02-09T17:26:24.706Z,99918.48
2019-02-09T17:28:52.926Z,99926.60
2019-02-09T17:31:21.106Z,99925.47
2019-02-09T17:33:49.299Z,99933.37
2019-02-09T17:36:17.477Z,99941.98
2019-02-09T17:39:04.782Z,99948.96
2019-02-09T17:41:32.961Z,99941.50
2019-02-09T17:44:01.154Z,99942.51
2019-02-09T17:49:16.596Z,99950.30
2019-02-09T17:51:44.772Z,99954.67
2019-02-09T17:57:05.989Z,99963.50
2019-02-09T17:59:34.200Z,99962.34
2019-02-09T18:02:02.374Z,99973.48
2019-02-09T18:04:30.563Z,99970.37
2019-02-09T18:06:58.751Z,99975.32
2019-02-09T18:09:26.938Z,99972.11
2019-02-09T18:11:55.116Z,99974.27
2019-02-09T18:14:23.320Z,99970.48
2019-02-09T18:16:51.496Z,99972.42
2019-02-09T18:19:19.678Z,99978.73
2019-02-09T18:21:47.860Z,99987.80
2019-02-09T18:24:35.166Z,99985.86
2019-02-09T18:27:03.371Z,99973.70
2019-02-09T18:29:31.581Z,99968.91
2019-02-09T18:32:39.873Z,99974.62
2019-02-09T18:35:48.204Z,99984.63
2019-02-09T18:38:16.388Z,99982.69
2019-02-09T18:40:44.576Z,99987.28
2019-02-09T18:43:12.756Z,99989.34
2019-02-09T18:46:21.092Z,99990.72
2019-02-09T18:48:49.271Z,99989.81
2019-02-09T18:53:51.657Z,99984.56
2019-02-09T18:56:19.861Z,100000.17
2019-02-09T18:58:48.044Z,99994.57
2019-02-09T19:01:16.237Z,100012.94
2019-02-09T19:03:44.438Z,100013.86
2019-02-09T19:06:12.658Z,100012.70
2019-02-09T19:08:40.841Z,100010.66
2019-02-09T19:11:09.042Z,100030.41
2019-02-09T19:13:37.230Z,100011.80
2019-02-09T19:16:45.532Z,100032.11
2019-02-09T19:19:13.719Z,100033.95
2019-02-09T19:22:22.043Z,100027.66
2019-02-09T19:24:50.245Z,100035.58
2019-02-09T19:27:18.454Z,100035.23
2019-02-09T19:29:46.700Z,100043.15
2019-02-09T19:32:14.856Z,100053.39
2019-02-09T19:35:02.417Z,100050.28
2019-02-09T19:37:30.597Z,100044.67
2019-02-09T19:39:58.797Z,100049.83
2019-02-09T19:43:07.101Z,100061.07
2019-02-09T19:48:36.461Z,100059.94
2019-02-09T19:51:04.638Z,100059.94
2019-02-09T19:53:32.841Z,100059.94
2019-02-09T19:56:01.038Z,100061.78
2019-02-09T19:59:09.329Z,100070.27
2019-02-09T20:01:37.520Z,100077.05
2019-02-09T20:04:05.733Z,100081.65
2019-02-09T20:06:33.931Z,100081.55
2019-02-09T20:11:49.361Z,100083.29
2019-02-09T20:14:36.929Z,100091.20
2019-02-09T20:17:05.124Z,100095.00
2019-02-09T20:19:33.299Z,100092.48
2019-02-09T20:22:01.518Z,100093.41
2019-02-09T20:27:16.953Z,100116.61
2019-02-09T20:29:45.154Z,100108.23
2019-02-09T20:32:13.373Z,100115.59
2019-02-09T20:34:41.558Z,100119.48
2019-02-09T20:39:43.937Z,100121.10
2019-02-09T20:42:12.125Z,100126.84
2019-02-09T20:47:49.761Z,100137.41
2019-02-09T20:53:30.746Z,100131.33
2019-02-09T20:55:58.924Z,100135.72
2019-02-09T20:58:27.123Z,100134.09
2019-02-09T21:01:14.716Z,100143.98
2019-02-09T21:03:42.916Z,100139.61
2019-02-09T21:06:11.104Z,100132.36
2019-02-09T21:08:39.325Z,100135.93
2019-02-09T21:11:07.500Z,100153.50
2019-02-09T21:13:35.706Z,100153.05
2019-02-09T21:16:03.885Z,100153.98
2019-02-09T21:18:32.082Z,100153.31
2019-02-09T21:21:00.263Z,100150.31
2019-02-09T21:23:28.457Z,100152.84
2019-02-09T21:25:56.662Z,100147.55
2019-02-09T21:28:24.861Z,100152.38
2019-02-09T21:30:53.045Z,100156.52
2019-02-09T21:33:21.275Z,100152.38
2019-02-09T21:39:15.138Z,100158.36
2019-02-09T21:41:43.321Z,100157.44
2019-02-09T21:44:11.518Z,100167.66
2019-02-09T21:46:39.702Z,100156.97
2019-02-09T21:49:07.918Z,100169.13
2019-02-09T21:51:55.528Z,100168.09
2019-02-09T21:54:23.724Z,100175.81
2019-02-09T21:56:51.910Z,100174.18
2019-02-09T21:59:20.100Z,100176.25
2019-02-09T22:01:48.318Z,100173.84
2019-02-09T22:04:35.622Z,100182.68
2019-02-09T22:07:03.808Z,100180.84
2019-02-09T22:09:32.000Z,100176.14
2019-02-09T22:12:00.247Z,100183.59
2019-02-09T22:14:48.002Z,100175.98
2019-02-09T22:17:17.952Z,100188.17
2019-02-09T22:19:47.789Z,100177.71
2019-02-09T22:22:15.961Z,100176.44
2019-02-09T22:24:44.158Z,100180.35
2019-02-09T22:27:12.343Z,100201.02
2019-02-09T22:29:40.543Z,100175.75
2019-02-09T22:32:28.105Z,100179.16
2019-02-09T22:34:56.295Z,100177.92
2019-02-09T22:37:24.507Z,100176.29
2019-02-09T22:39:52.760Z,100186.03
2019-02-09T22:42:22.615Z,100182.34
2019-02-09T22:44:50.803Z,100184.16
2019-02-09T22:47:59.126Z,100193.12
2019-02-09T22:50:47.400Z,100193.78
2019-02-09T22:53:15.625Z,100187.80
2019-02-09T22:56:03.237Z,100187.33
2019-02-09T22:58:31.459Z,100193.44
2019-02-09T23:07:14.160Z,100190.99
2019-02-09T23:09:42.352Z,100194.34
2019-02-09T23:12:10.532Z,100202.02
2019-02-09T23:14:38.729Z,100198.79
2019-02-09T23:17:06.920Z,100199.38
2019-02-09T23:19:35.122Z,100197.41
2019-02-09T23:22:03.309Z,100200.64
2019-02-09T23:24:31.508Z,100195.38
2019-02-09T23:26:59.690Z,100199.26
2019-02-09T23:29:27.883Z,100204.77
2019-02-09T23:31:56.065Z,100196.28
2019-02-09T23:34:24.262Z,100200.98
2019-02-09T23:36:52.449Z,100200.08
2019-02-09T23:39:20.646Z,100201.36
2019-02-09T23:41:48.834Z,100199.07
2019-02-09T23:44:17.054Z,100205.61
2019-02-09T23:49:59.249Z,100202.52
2019-02-09T23:52:27.428Z,100196.44
2019-02-09T23:55:14.999Z,100200.58
2019-02-09T23:57:43.188Z,100193.69
